createdAt,value
2023-04-07T00:01:42.738Z,2.20
2023-04-07T00:04:10.144Z,2.20
2023-04-07T00:06:37.063Z,2.53
2023-04-07T00:09:03.978Z,2.50
2023-04-07T00:11:30.943Z,2.50
2023-04-07T00:13:57.766Z,2.30
2023-04-07T00:16:24.598Z,2.30
2023-04-07T00:18:51.412Z,2.30
2023-04-07T00:21:18.158Z,2.30
2023-04-07T00:23:44.958Z,2.13
2023-04-07T00:26:11.798Z,2.50
2023-04-07T00:28:38.623Z,2.25
2023-04-07T00:31:05.900Z,2.58
2023-04-07T00:33:33.090Z,2.35
2023-04-07T00:36:00.170Z,2.60
2023-04-07T00:38:27.244Z,2.33
2023-04-07T00:41:00.894Z,2.30
2023-04-07T00:43:28.059Z,2.47
2023-04-07T00:45:55.195Z,2.67
2023-04-07T00:48:22.221Z,2.80
2023-04-07T00:50:49.434Z,2.10
2023-04-07T00:53:17.364Z,2.53
2023-04-07T00:55:44.441Z,2.63
2023-04-07T00:58:11.868Z,2.53
2023-04-07T01:00:45.617Z,2.63
2023-04-07T01:03:20.872Z,2.80
2023-04-07T01:05:58.055Z,2.83
2023-04-07T01:08:46.950Z,3.53
2023-04-07T01:11:21.263Z,2.97
2023-04-07T01:13:52.511Z,2.78
2023-04-07T01:16:53.798Z,2.70
2023-04-07T01:19:53.197Z,2.90
2023-04-07T01:22:33.449Z,2.40
2023-04-07T01:25:03.864Z,2.88
2023-04-07T01:28:14.083Z,2.90
2023-04-07T01:30:44.441Z,2.78
2023-04-07T01:33:12.345Z,2.92
2023-04-07T01:35:40.992Z,3.05
2023-04-07T01:38:08.352Z,2.15
2023-04-07T01:40:36.360Z,2.75
2023-04-07T01:43:04.041Z,2.97
2023-04-07T01:45:32.324Z,3.15
2023-04-07T01:47:59.914Z,2.90
2023-04-07T01:50:27.902Z,2.80
2023-04-07T01:52:54.875Z,2.63
2023-04-07T01:55:22.226Z,3.08
2023-04-07T01:57:49.022Z,3.00
2023-04-07T02:00:15.924Z,3.15
2023-04-07T02:02:46.664Z,3.22
2023-04-07T02:05:17.942Z,3.22
2023-04-07T02:07:58.020Z,3.40
2023-04-07T02:10:26.915Z,3.47
2023-04-07T02:12:55.151Z,3.55
2023-04-07T02:15:23.505Z,3.00
2023-04-07T02:17:54.323Z,3.40
2023-04-07T02:20:22.705Z,3.53
2023-04-07T02:22:49.545Z,3.45
2023-04-07T02:25:30.973Z,3.47
2023-04-07T02:27:59.696Z,3.20
2023-04-07T02:30:27.150Z,3.33
2023-04-07T02:32:54.460Z,2.72
2023-04-07T02:35:21.607Z,2.60
2023-04-07T02:37:49.017Z,2.60
2023-04-07T02:40:16.262Z,2.67
2023-04-07T02:42:43.732Z,2.80
2023-04-07T02:45:11.307Z,2.78
2023-04-07T02:47:40.282Z,2.55
2023-04-07T02:50:07.560Z,2.67
2023-04-07T02:52:34.378Z,2.25
2023-04-07T02:55:01.210Z,3.47
2023-04-07T02:57:27.999Z,2.97
2023-04-07T02:59:56.889Z,2.88
2023-04-07T03:02:24.756Z,3.00
2023-04-07T03:04:53.047Z,3.10
2023-04-07T03:07:20.174Z,3.33
2023-04-07T03:09:47.103Z,3.28
2023-04-07T03:12:13.924Z,3.03
2023-04-07T03:14:40.682Z,3.10
2023-04-07T03:17:07.551Z,3.28
2023-04-07T03:19:34.413Z,2.80
2023-04-07T03:22:01.448Z,2.45
2023-04-07T03:24:28.340Z,2.80
2023-04-07T03:26:55.115Z,2.80
2023-04-07T03:29:21.920Z,2.83
2023-04-07T03:31:48.787Z,2.97
2023-04-07T03:34:15.735Z,2.90
2023-04-07T03:36:42.511Z,2.90
2023-04-07T03:39:09.304Z,2.67
2023-04-07T03:41:36.083Z,3.10
2023-04-07T03:44:02.907Z,3.05
2023-04-07T03:46:29.822Z,2.90
2023-04-07T03:48:56.829Z,3.15
2023-04-07T03:51:23.654Z,3.08
2023-04-07T03:53:51.560Z,3.45
2023-04-07T03:56:18.942Z,3.28
2023-04-07T03:58:46.607Z,3.08
2023-04-07T04:01:13.607Z,3.08
2023-04-07T04:03:40.553Z,3.15
2023-04-07T04:06:07.510Z,2.78
2023-04-07T04:08:34.299Z,3.13
2023-04-07T04:11:01.772Z,2.72
2023-04-07T04:13:28.885Z,3.15
2023-04-07T04:15:55.863Z,2.92
2023-04-07T04:18:22.707Z,3.05
2023-04-07T04:20:49.680Z,3.08
2023-04-07T04:23:16.451Z,3.15
2023-04-07T04:25:43.287Z,3.80
2023-04-07T04:28:10.392Z,2.78
2023-04-07T04:30:37.332Z,3.20
2023-04-07T04:33:04.196Z,3.78
2023-04-07T04:35:31.482Z,3.13
2023-04-07T04:37:58.350Z,3.03
2023-04-07T04:40:25.299Z,3.15
2023-04-07T04:42:52.088Z,3.42
2023-04-07T04:45:19.096Z,2.67
2023-04-07T04:47:45.912Z,3.17
2023-04-07T04:50:13.055Z,2.97
2023-04-07T04:52:40.631Z,3.17
2023-04-07T04:55:08.142Z,3.55
2023-04-07T04:57:36.141Z,3.35
2023-04-07T05:00:04.387Z,3.40
2023-04-07T05:02:32.244Z,3.05
2023-04-07T05:04:59.408Z,3.05
2023-04-07T05:07:26.663Z,3.08
2023-04-07T05:09:53.526Z,3.40
2023-04-07T05:12:21.017Z,3.55
2023-04-07T05:14:47.818Z,4.63
2023-04-07T05:17:14.576Z,4.63
2023-04-07T05:19:41.336Z,4.57
2023-04-07T05:22:08.112Z,5.03
2023-04-07T05:24:34.901Z,6.13
2023-04-07T05:27:02.075Z,4.82
2023-04-07T05:29:29.033Z,4.38
2023-04-07T05:31:55.961Z,4.85
2023-04-07T05:34:23.227Z,4.50
2023-04-07T05:36:50.798Z,4.75
2023-04-07T05:39:17.553Z,4.32
2023-04-07T05:41:44.412Z,4.40
2023-04-07T05:44:11.274Z,4.03
2023-04-07T05:46:38.079Z,4.10
2023-04-07T05:49:18.915Z,4.25
2023-04-07T05:51:47.576Z,4.05
2023-04-07T05:54:15.980Z,3.80
2023-04-07T05:56:42.892Z,3.63
2023-04-07T05:59:10.211Z,3.45
2023-04-07T06:01:36.987Z,4.00
2023-04-07T06:04:04.280Z,3.65
2023-04-07T06:06:31.622Z,3.53
2023-04-07T06:08:58.426Z,4.80
2023-04-07T06:11:27.147Z,3.58
2023-04-07T06:13:53.995Z,3.90
2023-04-07T06:16:20.825Z,3.70
2023-04-07T06:18:47.644Z,3.42
2023-04-07T06:21:14.465Z,4.07
2023-04-07T06:23:41.294Z,3.47
2023-04-07T06:26:12.114Z,3.72
2023-04-07T06:28:39.564Z,3.20
2023-04-07T06:31:07.218Z,3.70
2023-04-07T06:33:34.336Z,3.20
2023-04-07T06:36:01.308Z,3.40
2023-04-07T06:38:28.233Z,3.65
2023-04-07T06:40:55.158Z,3.33
2023-04-07T06:43:22.254Z,3.65
2023-04-07T06:45:49.072Z,3.83
2023-04-07T06:48:16.169Z,3.42
2023-04-07T06:50:46.545Z,3.70
2023-04-07T06:53:13.389Z,3.75
2023-04-07T06:55:40.462Z,3.58
2023-04-07T06:58:07.493Z,3.60
2023-04-07T07:00:35.989Z,3.58
2023-04-07T07:03:03.001Z,3.60
2023-04-07T07:05:30.113Z,3.55
2023-04-07T07:08:01.627Z,3.72
2023-04-07T07:10:30.997Z,3.58
2023-04-07T07:12:57.788Z,3.55
2023-04-07T07:15:25.797Z,3.38
2023-04-07T07:17:52.783Z,3.50
2023-04-07T07:20:19.769Z,3.58
2023-04-07T07:22:46.723Z,3.58
2023-04-07T07:25:13.587Z,4.90
2023-04-07T07:27:40.415Z,3.50
2023-04-07T07:30:08.757Z,3.85
2023-04-07T07:32:39.068Z,4.18
2023-04-07T07:35:06.186Z,4.13
2023-04-07T07:37:33.422Z,3.63
2023-04-07T07:40:00.347Z,4.00
2023-04-07T07:42:27.164Z,3.50
2023-04-07T07:44:53.997Z,3.33
2023-04-07T07:47:22.017Z,3.58
2023-04-07T07:49:52.437Z,3.80
2023-04-07T07:52:20.711Z,3.80
2023-04-07T07:54:48.737Z,3.83
2023-04-07T07:57:18.645Z,3.67
2023-04-07T07:59:47.921Z,3.50
2023-04-07T08:02:16.304Z,3.58
2023-04-07T08:04:43.277Z,3.40
2023-04-07T08:07:11.921Z,3.72
2023-04-07T08:09:39.680Z,3.70
2023-04-07T08:12:06.678Z,3.55
2023-04-07T08:14:33.562Z,3.80
2023-04-07T08:17:00.333Z,3.80
2023-04-07T08:19:27.471Z,3.20
2023-04-07T08:21:54.255Z,3.53
2023-04-07T08:24:21.448Z,3.88
2023-04-07T08:26:48.386Z,3.58
2023-04-07T08:29:15.478Z,3.30
2023-04-07T08:31:42.354Z,3.33
2023-04-07T08:34:09.266Z,3.55
2023-04-07T08:36:36.115Z,3.40
2023-04-07T08:39:05.600Z,3.65
2023-04-07T08:41:40.893Z,3.38
2023-04-07T08:44:09.429Z,4.13
2023-04-07T08:46:38.991Z,3.30
2023-04-07T08:49:10.168Z,3.88
2023-04-07T08:51:38.693Z,4.07
2023-04-07T08:54:13.032Z,4.22
2023-04-07T08:56:42.867Z,3.80
2023-04-07T08:59:12.448Z,4.18
2023-04-07T09:01:40.475Z,3.92
2023-04-07T09:04:09.337Z,4.35
2023-04-07T09:06:36.950Z,3.72
2023-04-07T09:09:06.203Z,4.25
2023-04-07T09:11:37.669Z,3.45
2023-04-07T09:14:04.857Z,4.00
2023-04-07T09:16:35.777Z,4.15
2023-04-07T09:19:02.771Z,4.18
2023-04-07T09:21:48.728Z,3.80
2023-04-07T09:24:29.614Z,4.20
2023-04-07T09:27:17.839Z,4.25
2023-04-07T09:29:46.911Z,4.03
2023-04-07T09:32:36.595Z,3.70
2023-04-07T09:35:03.569Z,4.22
2023-04-07T09:37:30.509Z,4.25
2023-04-07T09:39:57.503Z,4.00
2023-04-07T09:42:24.384Z,4.18
2023-04-07T09:44:51.227Z,4.30
2023-04-07T09:47:18.757Z,3.65
2023-04-07T09:49:53.548Z,4.28
2023-04-07T09:52:23.490Z,4.13
2023-04-07T09:54:52.086Z,3.50
2023-04-07T09:57:20.682Z,4.00
2023-04-07T09:59:48.874Z,3.58
2023-04-07T10:02:16.094Z,4.32
2023-04-07T10:04:43.842Z,3.83
2023-04-07T10:07:10.684Z,4.20
2023-04-07T10:09:37.507Z,3.38
2023-04-07T10:12:05.976Z,3.47
2023-04-07T10:14:34.712Z,4.03
2023-04-07T10:17:03.241Z,3.70
2023-04-07T10:19:34.859Z,3.88
2023-04-07T10:22:05.378Z,3.70
2023-04-07T10:24:47.141Z,3.30
2023-04-07T10:27:22.015Z,3.20
2023-04-07T10:29:51.338Z,3.50
2023-04-07T10:32:18.268Z,3.42
2023-04-07T10:34:53.601Z,3.38
2023-04-07T10:37:22.326Z,3.30
2023-04-07T10:39:51.202Z,3.22
2023-04-07T10:42:36.751Z,3.47
2023-04-07T10:45:04.959Z,3.55
2023-04-07T10:47:32.689Z,3.20
2023-04-07T10:50:20.904Z,3.53
2023-04-07T10:52:49.885Z,3.00
2023-04-07T10:55:31.748Z,3.20
2023-04-07T10:58:22.870Z,3.58
2023-04-07T11:01:04.841Z,3.15
2023-04-07T11:03:36.730Z,3.10
2023-04-07T11:06:08.916Z,2.88
2023-04-07T11:08:41.679Z,2.88
2023-04-07T11:11:10.194Z,2.80
2023-04-07T11:13:48.779Z,2.85
2023-04-07T11:16:20.752Z,2.67
2023-04-07T11:18:48.211Z,2.80
2023-04-07T11:21:19.581Z,2.55
2023-04-07T11:23:48.273Z,2.78
2023-04-07T11:26:16.399Z,2.90
2023-04-07T11:28:54.354Z,2.85
2023-04-07T11:31:31.893Z,2.88
2023-04-07T11:34:02.485Z,2.90
2023-04-07T11:36:32.264Z,3.10
2023-04-07T11:39:00.038Z,2.85
2023-04-07T11:41:28.482Z,2.75
2023-04-07T11:44:12.537Z,2.80
2023-04-07T11:46:56.452Z,2.45
2023-04-07T11:49:25.863Z,3.03
2023-04-07T11:52:01.923Z,2.70
2023-04-07T11:57:23.851Z,2.80
2023-04-07T11:59:50.904Z,2.17
2023-04-07T12:02:34.581Z,2.33
2023-04-07T12:05:01.883Z,2.35
2023-04-07T12:07:29.352Z,2.30
2023-04-07T12:09:57.393Z,1.90
2023-04-07T12:12:33.081Z,2.38
2023-04-07T12:14:59.837Z,2.40
2023-04-07T12:17:27.349Z,2.30
2023-04-07T12:19:54.179Z,1.80
2023-04-07T12:22:20.891Z,1.98
2023-04-07T12:24:47.598Z,2.30
2023-04-07T12:27:14.313Z,2.08
2023-04-07T12:29:41.673Z,1.90
2023-04-07T12:32:08.935Z,2.30
2023-04-07T12:34:37.512Z,2.20
2023-04-07T12:37:04.289Z,2.38
2023-04-07T12:39:31.382Z,1.70
2023-04-07T12:41:58.126Z,1.95
2023-04-07T12:44:25.319Z,1.80
2023-04-07T12:46:52.181Z,2.03
2023-04-07T12:49:18.907Z,2.17
2023-04-07T12:51:45.917Z,1.85
2023-04-07T12:54:12.684Z,1.80
2023-04-07T12:56:41.797Z,1.90
2023-04-07T12:59:09.172Z,1.48
2023-04-07T13:01:37.205Z,1.80
2023-04-07T13:04:06.167Z,1.90
2023-04-07T13:06:33.668Z,2.70
2023-04-07T13:09:00.585Z,2.17
2023-04-07T13:11:27.348Z,2.33
2023-04-07T13:13:56.468Z,2.10
2023-04-07T13:16:24.310Z,2.38
2023-04-07T13:18:51.471Z,2.30
2023-04-07T13:23:50.552Z,1.88
2023-04-07T13:26:17.360Z,2.05
2023-04-07T13:28:45.944Z,2.10
2023-04-07T13:31:15.815Z,2.10
2023-04-07T13:33:42.880Z,2.00
2023-04-07T13:36:10.205Z,1.90
2023-04-07T13:38:37.107Z,2.22
2023-04-07T13:41:04.077Z,1.67
2023-04-07T13:43:30.978Z,1.92
2023-04-07T13:45:57.728Z,2.22
2023-04-07T13:48:24.708Z,2.15
2023-04-07T13:50:51.506Z,1.92
2023-04-07T13:53:19.323Z,2.20
2023-04-07T13:55:46.395Z,1.58
2023-04-07T13:58:13.200Z,1.80
2023-04-07T14:00:40.338Z,1.67
2023-04-07T14:03:07.953Z,1.80
2023-04-07T14:05:35.807Z,1.92
2023-04-07T14:08:02.863Z,1.98
2023-04-07T14:10:29.842Z,1.83
2023-04-07T14:12:57.090Z,1.48
2023-04-07T14:15:23.869Z,1.75
2023-04-07T14:17:50.641Z,1.77
2023-04-07T14:20:17.518Z,1.80
2023-04-07T14:22:44.591Z,1.50
2023-04-07T14:25:11.731Z,1.70
2023-04-07T14:27:38.622Z,1.52
2023-04-07T14:30:05.958Z,1.50
2023-04-07T14:32:34.261Z,1.88
2023-04-07T14:35:01.409Z,2.47
2023-04-07T14:37:29.417Z,2.05
2023-04-07T14:40:02.377Z,2.08
2023-04-07T14:42:31.682Z,2.17
2023-04-07T14:45:00.198Z,2.25
2023-04-07T14:47:27.578Z,2.42
2023-04-07T14:49:54.603Z,2.20
2023-04-07T14:52:22.126Z,2.40
2023-04-07T14:54:49.127Z,2.35
2023-04-07T14:57:16.633Z,1.90
2023-04-07T14:59:43.918Z,2.13
2023-04-07T15:02:11.077Z,1.80
2023-04-07T15:04:38.517Z,2.00
2023-04-07T15:07:05.660Z,2.05
2023-04-07T15:09:32.617Z,1.70
2023-04-07T15:12:00.707Z,1.67
2023-04-07T15:14:27.748Z,1.83
2023-04-07T15:16:54.873Z,2.17
2023-04-07T15:19:21.675Z,1.98
2023-04-07T15:21:48.465Z,1.77
2023-04-07T15:24:16.470Z,1.92
2023-04-07T15:26:43.631Z,1.83
2023-04-07T15:29:10.441Z,2.00
2023-04-07T15:31:37.417Z,2.05
2023-04-07T15:34:04.290Z,2.10
2023-04-07T15:36:31.481Z,1.83
2023-04-07T15:39:04.365Z,2.10
2023-04-07T15:41:31.652Z,2.22
2023-04-07T15:44:01.593Z,2.50
2023-04-07T15:46:28.864Z,2.30
2023-04-07T15:48:56.243Z,1.92
2023-04-07T15:51:23.456Z,2.90
2023-04-07T15:53:50.586Z,2.13
2023-04-07T15:56:17.413Z,2.28
2023-04-07T15:58:45.883Z,1.98
2023-04-07T16:01:12.774Z,2.70
2023-04-07T16:03:39.746Z,2.45
2023-04-07T16:06:06.584Z,2.50
2023-04-07T16:08:33.471Z,2.28
2023-04-07T16:11:00.422Z,1.80
2023-04-07T16:13:27.277Z,2.40
2023-04-07T16:15:57.590Z,1.60
2023-04-07T16:18:24.474Z,1.92
2023-04-07T16:20:51.329Z,2.20
2023-04-07T16:23:18.080Z,1.90
2023-04-07T16:25:44.851Z,1.77
2023-04-07T16:28:11.968Z,1.80
2023-04-07T16:30:39.045Z,1.73
2023-04-07T16:33:05.942Z,1.52
2023-04-07T16:35:33.272Z,1.65
2023-04-07T16:38:04.253Z,1.83
2023-04-07T16:40:31.393Z,1.90
2023-04-07T16:42:58.111Z,1.75
2023-04-07T16:45:24.925Z,1.77
2023-04-07T16:47:52.066Z,1.73
2023-04-07T16:50:21.903Z,2.00
2023-04-07T16:52:49.548Z,1.92
2023-04-07T16:55:17.316Z,1.90
2023-04-07T16:57:46.815Z,2.03
2023-04-07T17:00:16.556Z,1.80
2023-04-07T17:02:43.431Z,1.85
2023-04-07T17:05:10.312Z,1.90
2023-04-07T17:07:37.356Z,1.90
2023-04-07T17:10:04.268Z,1.92
2023-04-07T17:12:31.288Z,1.55
2023-04-07T17:14:58.041Z,1.70
2023-04-07T17:17:24.900Z,1.67
2023-04-07T17:19:51.721Z,1.70
2023-04-07T17:22:18.834Z,1.90
2023-04-07T17:24:45.596Z,1.60
2023-04-07T17:27:12.341Z,1.58
2023-04-07T17:29:39.296Z,1.70
2023-04-07T17:32:07.709Z,2.00
2023-04-07T17:34:35.351Z,1.75
2023-04-07T17:37:02.585Z,1.80
2023-04-07T17:39:29.599Z,1.67
2023-04-07T17:41:56.406Z,1.88
2023-04-07T17:44:23.151Z,1.80
2023-04-07T17:46:49.987Z,1.70
2023-04-07T17:49:17.148Z,1.50
2023-04-07T17:51:43.913Z,1.70
2023-04-07T17:54:10.647Z,1.60
2023-04-07T17:56:38.229Z,1.88
2023-04-07T17:59:05.088Z,1.63
2023-04-07T18:01:32.226Z,1.80
2023-04-07T18:03:59.984Z,1.40
2023-04-07T18:06:28.482Z,1.55
2023-04-07T18:08:55.568Z,1.45
2023-04-07T18:11:22.862Z,2.20
2023-04-07T18:13:49.865Z,1.50
2023-04-07T18:16:21.460Z,1.40
2023-04-07T18:18:49.564Z,1.40
2023-04-07T18:21:16.519Z,1.55
2023-04-07T18:23:43.305Z,1.42
2023-04-07T18:26:10.345Z,1.52
2023-04-07T18:28:37.133Z,1.60
2023-04-07T18:31:09.106Z,1.70
2023-04-07T18:33:36.391Z,1.63
2023-04-07T18:36:06.979Z,1.70
2023-04-07T18:38:35.377Z,1.80
2023-04-07T18:41:03.822Z,1.27
2023-04-07T18:43:31.361Z,1.42
2023-04-07T18:45:58.668Z,1.40
2023-04-07T18:48:28.662Z,1.50
2023-04-07T18:50:58.263Z,1.30
2023-04-07T18:53:26.607Z,1.30
2023-04-07T18:55:54.847Z,1.55
2023-04-07T18:58:25.609Z,1.52
2023-04-07T19:00:54.429Z,1.83
2023-04-07T19:03:21.738Z,1.70
2023-04-07T19:05:52.272Z,2.10
2023-04-07T19:08:19.671Z,2.20
2023-04-07T19:10:46.452Z,1.95
2023-04-07T19:13:15.593Z,1.80
2023-04-07T19:15:46.092Z,1.73
2023-04-07T19:18:13.220Z,1.63
2023-04-07T19:20:40.537Z,1.52
2023-04-07T19:23:07.923Z,1.67
2023-04-07T19:25:35.127Z,1.70
2023-04-07T19:28:03.089Z,1.60
2023-04-07T19:30:32.769Z,1.70
2023-04-07T19:32:59.595Z,1.63
2023-04-07T19:35:27.006Z,1.70
2023-04-07T19:37:53.961Z,1.40
2023-04-07T19:40:20.787Z,1.50
2023-04-07T19:42:47.531Z,1.50
2023-04-07T19:45:14.255Z,1.40
2023-04-07T19:47:42.588Z,1.40
2023-04-07T19:50:11.372Z,1.30
2023-04-07T19:52:38.877Z,1.77
2023-04-07T19:55:06.163Z,1.58
2023-04-07T19:57:33.321Z,1.42
2023-04-07T20:00:00.108Z,1.40
2023-04-07T20:02:27.899Z,1.40
2023-04-07T20:04:54.859Z,1.30
2023-04-07T20:07:22.708Z,1.40
2023-04-07T20:09:51.356Z,1.65
2023-04-07T20:12:18.320Z,1.30
2023-04-07T20:14:45.274Z,1.60
2023-04-07T20:17:12.287Z,1.48
2023-04-07T20:19:39.778Z,1.50
2023-04-07T20:22:06.612Z,1.55
2023-04-07T20:24:36.459Z,1.50
2023-04-07T20:27:03.313Z,1.60
2023-04-07T20:29:30.163Z,1.30
2023-04-07T20:31:56.956Z,1.73
2023-04-07T20:34:23.698Z,1.45
2023-04-07T20:36:50.524Z,1.73
2023-04-07T20:39:17.392Z,1.70
2023-04-07T20:41:45.534Z,1.85
2023-04-07T20:44:12.294Z,1.60
2023-04-07T20:46:39.065Z,1.70
2023-04-07T20:49:08.053Z,1.65
2023-04-07T20:51:36.725Z,1.85
2023-04-07T20:54:04.582Z,1.55
2023-04-07T20:56:31.938Z,1.63
2023-04-07T20:58:58.836Z,1.95
2023-04-07T21:01:25.950Z,1.67
2023-04-07T21:03:53.809Z,1.88
2023-04-07T21:06:21.147Z,2.00
2023-04-07T21:08:48.280Z,2.10
2023-04-07T21:11:15.393Z,2.35
2023-04-07T21:13:42.497Z,2.00
2023-04-07T21:16:09.485Z,2.20
2023-04-07T21:18:36.446Z,2.60
2023-04-07T21:21:04.195Z,2.35
2023-04-07T21:23:31.874Z,2.67
2023-04-07T21:26:02.950Z,3.40
2023-04-07T21:28:30.246Z,4.72
2023-04-07T21:30:57.220Z,5.35
2023-04-07T21:33:24.638Z,5.05
2023-04-07T21:35:52.057Z,4.63
2023-04-07T21:38:18.902Z,4.60
2023-04-07T21:40:46.357Z,4.15
2023-04-07T21:43:13.620Z,3.85
2023-04-07T21:45:41.288Z,3.60
2023-04-07T21:48:08.138Z,3.30
2023-04-07T21:50:36.895Z,3.50
2023-04-07T21:53:03.856Z,3.15
2023-04-07T21:55:30.904Z,3.08
2023-04-07T21:57:58.150Z,3.13
2023-04-07T22:00:25.024Z,3.78
2023-04-07T22:02:51.967Z,2.80
2023-04-07T22:05:19.080Z,2.85
2023-04-07T22:07:46.691Z,2.90
2023-04-07T22:10:13.781Z,3.10
2023-04-07T22:12:41.135Z,2.58
2023-04-07T22:15:09.296Z,2.70
2023-04-07T22:17:36.249Z,2.53
2023-04-07T22:20:03.994Z,2.97
2023-04-07T22:22:30.960Z,3.08
2023-04-07T22:24:57.756Z,2.53
2023-04-07T22:27:24.550Z,3.33
2023-04-07T22:29:51.362Z,2.70
2023-04-07T22:32:18.186Z,3.25
2023-04-07T22:34:46.483Z,3.22
2023-04-07T22:37:13.323Z,3.03
2023-04-07T22:39:40.566Z,3.28
2023-04-07T22:42:07.290Z,3.53
2023-04-07T22:44:34.193Z,2.80
2023-04-07T22:47:01.364Z,4.00
2023-04-07T22:49:28.547Z,3.03
2023-04-07T22:51:57.012Z,3.35
2023-04-07T22:54:23.994Z,3.33
2023-04-07T22:56:51.071Z,3.22
2023-04-07T22:59:18.082Z,3.00
2023-04-07T23:01:45.008Z,3.17
2023-04-07T23:04:11.873Z,3.30
2023-04-07T23:06:40.582Z,3.47
2023-04-07T23:09:07.655Z,3.03
2023-04-07T23:11:34.426Z,2.97
2023-04-07T23:14:04.909Z,3.38
2023-04-07T23:16:33.235Z,3.20
2023-04-07T23:19:01.096Z,2.65
2023-04-07T23:21:30.142Z,3.13
2023-04-07T23:23:58.614Z,2.65
2023-04-07T23:26:26.725Z,3.20
2023-04-07T23:28:53.474Z,3.47
2023-04-07T23:31:20.610Z,3.00
2023-04-07T23:33:47.632Z,2.60
2023-04-07T23:36:14.426Z,3.08
2023-04-07T23:38:41.613Z,3.25
2023-04-07T23:41:08.583Z,3.08
2023-04-07T23:43:35.685Z,2.70
2023-04-07T23:46:02.728Z,3.15
2023-04-07T23:48:31.304Z,2.85
2023-04-07T23:50:59.852Z,2.90
2023-04-07T23:53:26.773Z,3.10
2023-04-07T23:55:53.551Z,3.35
2023-04-07T23:58:20.311Z,2.90
